sensor_id;sensor_type;location;lat;lon;timestamp;temperature;humidity
55219;DHT22;65463;43.864;20.136;2022-12-20T00:25:12;128.70;2252.80
55219;DHT22;65463;43.864;20.136;2022-12-20T00:27:37;128.30;2252.80
55219;DHT22;65463;43.864;20.136;2022-12-20T00:32:30;128.60;2252.80
55219;DHT22;65463;43.864;20.136;2022-12-20T00:34:56;128.70;2252.80
55219;DHT22;65463;43.864;20.136;2022-12-20T00:37:22;128.40;2252.80
55219;DHT22;65463;43.864;20.136;2022-12-20T00:39:48;128.20;2252.80
55219;DHT22;65463;43.864;20.136;2022-12-20T00:49:33;77.40;2227.20
55219;DHT22;65463;43.864;20.136;2022-12-20T01:48:41;77.00;2227.20
55219;DHT22;65463;43.864;20.136;2022-12-20T01:51:08;76.80;2227.20
55219;DHT22;65463;43.864;20.136;2022-12-20T01:53:34;51.70;2227.20
55219;DHT22;65463;43.864;20.136;2022-12-20T01:56:03;51.40;2227.20
55219;DHT22;65463;43.864;20.136;2022-12-20T01:58:30;51.20;2227.20
55219;DHT22;65463;43.864;20.136;2022-12-20T02:00:57;51.70;2227.20
55219;DHT22;65463;43.864;20.136;2022-12-20T02:03:22;51.80;2227.20
55219;DHT22;65463;43.864;20.136;2022-12-20T02:05:51;77.20;2227.20
55219;DHT22;65463;43.864;20.136;2022-12-20T02:08:18;76.80;2227.20
55219;DHT22;65463;43.864;20.136;2022-12-20T02:13:54;77.00;2227.20
55219;DHT22;65463;43.864;20.136;2022-12-20T02:16:27;51.80;2227.20
55219;DHT22;65463;43.864;20.136;2022-12-20T02:32:09;76.90;2227.20
55219;DHT22;65463;43.864;20.136;2022-12-20T02:34:39;52.00;2227.20
55219;DHT22;65463;43.864;20.136;2022-12-20T02:37:06;51.40;2227.20
55219;DHT22;65463;43.864;20.136;2022-12-20T02:39:33;26.50;2201.60
55219;DHT22;65463;43.864;20.136;2022-12-20T02:42:05;26.40;2201.60
55219;DHT22;65463;43.864;20.136;2022-12-20T02:44:34;26.10;2201.60
55219;DHT22;65463;43.864;20.136;2022-12-20T02:47:25;26.30;2201.60
55219;DHT22;65463;43.864;20.136;2022-12-20T02:49:53;51.30;2227.20
55219;DHT22;65463;43.864;20.136;2022-12-20T02:52:22;26.40;2201.60
55219;DHT22;65463;43.864;20.136;2022-12-20T02:54:54;26.40;2201.60
55219;DHT22;65463;43.864;20.136;2022-12-20T02:57:27;26.40;2201.60
55219;DHT22;65463;43.864;20.136;2022-12-20T02:59:59;51.70;2227.20
55219;DHT22;65463;43.864;20.136;2022-12-20T03:02:27;51.70;2227.20
55219;DHT22;65463;43.864;20.136;2022-12-20T03:04:54;51.40;2227.20
55219;DHT22;65463;43.864;20.136;2022-12-20T03:07:21;26.50;2201.60
55219;DHT22;65463;43.864;20.136;2022-12-20T03:09:47;26.30;2201.60
55219;DHT22;65463;43.864;20.136;2022-12-20T03:12:14;26.20;2201.60
55219;DHT22;65463;43.864;20.136;2022-12-20T03:14:43;26.20;2201.60
55219;DHT22;65463;43.864;20.136;2022-12-20T03:17:09;26.10;2201.60
55219;DHT22;65463;43.864;20.136;2022-12-20T03:19:35;26.00;2201.60
55219;DHT22;65463;43.864;20.136;2022-12-20T03:22:01;26.00;2201.60
55219;DHT22;65463;43.864;20.136;2022-12-20T03:24:26;26.00;2201.60
55219;DHT22;65463;43.864;20.136;2022-12-20T03:26:52;26.00;2201.60
55219;DHT22;65463;43.864;20.136;2022-12-20T03:29:18;26.00;2201.60
55219;DHT22;65463;43.864;20.136;2022-12-20T03:31:44;26.10;2201.60
55219;DHT22;65463;43.864;20.136;2022-12-20T03:34:10;26.30;2201.60
55219;DHT22;65463;43.864;20.136;2022-12-20T03:36:36;26.00;2201.60
55219;DHT22;65463;43.864;20.136;2022-12-20T03:39:02;26.10;2201.60
55219;DHT22;65463;43.864;20.136;2022-12-20T03:41:28;26.10;2201.60
55219;DHT22;65463;43.864;20.136;2022-12-20T03:43:54;26.40;2201.60
55219;DHT22;65463;43.864;20.136;2022-12-20T03:46:19;26.10;2201.60
55219;DHT22;65463;43.864;20.136;2022-12-20T03:48:45;26.30;2201.60
55219;DHT22;65463;43.864;20.136;2022-12-20T03:51:11;26.20;2201.60
55219;DHT22;65463;43.864;20.136;2022-12-20T03:53:37;26.20;2201.60
55219;DHT22;65463;43.864;20.136;2022-12-20T03:56:03;26.20;2201.60
55219;DHT22;65463;43.864;20.136;2022-12-20T03:58:29;26.10;2201.60
55219;DHT22;65463;43.864;20.136;2022-12-20T04:00:56;26.10;2201.60
55219;DHT22;65463;43.864;20.136;2022-12-20T04:03:22;26.10;2201.60
55219;DHT22;65463;43.864;20.136;2022-12-20T04:05:47;26.50;2201.60
55219;DHT22;65463;43.864;20.136;2022-12-20T04:08:13;26.30;2201.60
55219;DHT22;65463;43.864;20.136;2022-12-20T04:10:39;26.40;2201.60
55219;DHT22;65463;43.864;20.136;2022-12-20T04:13:23;51.30;2227.20
55219;DHT22;65463;43.864;20.136;2022-12-20T04:15:49;51.30;2227.20
55219;DHT22;65463;43.864;20.136;2022-12-20T04:18:15;26.50;2201.60
55219;DHT22;65463;43.864;20.136;2022-12-20T04:20:41;76.80;2227.20
55219;DHT22;65463;43.864;20.136;2022-12-20T04:23:06;77.20;2227.20
55219;DHT22;65463;43.864;20.136;2022-12-20T04:25:32;52.00;2227.20
55219;DHT22;65463;43.864;20.136;2022-12-20T04:27:58;52.10;2227.20
55219;DHT22;65463;43.864;20.136;2022-12-20T04:30:24;76.80;2227.20
55219;DHT22;65463;43.864;20.136;2022-12-20T04:32:50;51.90;2227.20
55219;DHT22;65463;43.864;20.136;2022-12-20T04:35:19;51.60;2227.20
55219;DHT22;65463;43.864;20.136;2022-12-20T04:37:45;51.50;2227.20
55219;DHT22;65463;43.864;20.136;2022-12-20T04:40:12;51.30;2227.20
55219;DHT22;65463;43.864;20.136;2022-12-20T04:42:38;51.20;2227.20
55219;DHT22;65463;43.864;20.136;2022-12-20T04:45:04;51.30;2227.20
55219;DHT22;65463;43.864;20.136;2022-12-20T04:47:30;51.40;2227.20
55219;DHT22;65463;43.864;20.136;2022-12-20T04:49:56;51.30;2227.20
55219;DHT22;65463;43.864;20.136;2022-12-20T04:52:21;51.80;2227.20
55219;DHT22;65463;43.864;20.136;2022-12-20T04:57:32;77.50;2227.20
55219;DHT22;65463;43.864;20.136;2022-12-20T04:59:57;77.40;2227.20
55219;DHT22;65463;43.864;20.136;2022-12-20T05:02:23;77.10;2227.20
55219;DHT22;65463;43.864;20.136;2022-12-20T05:12:08;51.80;2227.20
55219;DHT22;65463;43.864;20.136;2022-12-20T05:14:33;51.60;2227.20
55219;DHT22;65463;43.864;20.136;2022-12-20T05:16:59;51.30;2227.20
55219;DHT22;65463;43.864;20.136;2022-12-20T05:19:25;51.20;2227.20
55219;DHT22;65463;43.864;20.136;2022-12-20T05:21:51;26.40;2201.60
55219;DHT22;65463;43.864;20.136;2022-12-20T05:24:35;26.40;2201.60
55219;DHT22;65463;43.864;20.136;2022-12-20T05:27:19;26.40;2201.60
55219;DHT22;65463;43.864;20.136;2022-12-20T05:29:45;51.40;2227.20
55219;DHT22;65463;43.864;20.136;2022-12-20T05:34:37;76.90;2227.20
55219;DHT22;65463;43.864;20.136;2022-12-20T05:37:02;77.00;2227.20
55219;DHT22;65463;43.864;20.136;2022-12-20T05:39:28;77.00;2227.20
55219;DHT22;65463;43.864;20.136;2022-12-20T06:25:48;103.20;2227.20
55219;DHT22;65463;43.864;20.136;2022-12-20T06:28:14;103.30;2227.20
55219;DHT22;65463;43.864;20.136;2022-12-20T06:30:54;102.50;2227.20
55219;DHT22;65463;43.864;20.136;2022-12-20T06:33:20;77.40;2227.20
55219;DHT22;65463;43.864;20.136;2022-12-20T06:35:48;77.10;2227.20
55219;DHT22;65463;43.864;20.136;2022-12-20T06:38:14;77.00;2227.20
55219;DHT22;65463;43.864;20.136;2022-12-20T06:43:06;153.60;2252.80
55219;DHT22;65463;43.864;20.136;2022-12-20T06:45:32;204.80;2252.80
55219;DHT22;65463;43.864;20.136;2022-12-20T06:47:57;204.80;2252.80
55219;DHT22;65463;43.864;20.136;2022-12-20T06:50:23;205.30;2252.80
55219;DHT22;65463;43.864;20.136;2022-12-20T06:52:49;231.20;2252.80
55219;DHT22;65463;43.864;20.136;2022-12-20T06:55:15;307.20;2304.00
55219;DHT22;65463;43.864;20.136;2022-12-20T06:57:41;256.90;2252.80
55219;DHT22;65463;43.864;20.136;2022-12-20T07:00:08;281.80;1766.40
55219;DHT22;65463;43.864;20.136;2022-12-20T07:02:37;231.30;2150.40
55219;DHT22;65463;43.864;20.136;2022-12-20T07:05:03;205.50;1996.80
55219;DHT22;65463;43.864;20.136;2022-12-20T07:07:30;205.30;2252.80
55219;DHT22;65463;43.864;20.136;2022-12-20T07:09:56;281.60;2278.40
55219;DHT22;65463;43.864;20.136;2022-12-20T07:12:22;256.70;2252.80
55219;DHT22;65463;43.864;20.136;2022-12-20T07:17:14;154.00;2252.80
55219;DHT22;65463;43.864;20.136;2022-12-20T08:57:37;77.60;2227.20
55219;DHT22;65463;43.864;20.136;2022-12-20T09:17:08;102.70;2227.20
55219;DHT22;65463;43.864;20.136;2022-12-20T09:29:18;77.20;2227.20
55219;DHT22;65463;43.864;20.136;2022-12-20T09:31:44;76.90;2227.20
55219;DHT22;65463;43.864;20.136;2022-12-20T09:34:09;77.00;2227.20
55219;DHT22;65463;43.864;20.136;2022-12-20T09:36:35;52.00;2227.20
55219;DHT22;65463;43.864;20.136;2022-12-20T10:20:40;102.90;2227.20
55219;DHT22;65463;43.864;20.136;2022-12-20T11:26:34;102.80;2227.20
55219;DHT22;65463;43.864;20.136;2022-12-20T11:32:31;102.80;2227.20
55219;DHT22;65463;43.864;20.136;2022-12-20T13:51:29;179.30;2252.80
55219;DHT22;65463;43.864;20.136;2022-12-20T15:03:01;103.00;2227.20
55219;DHT22;65463;43.864;20.136;2022-12-20T15:05:31;102.90;2227.20
55219;DHT22;65463;43.864;20.136;2022-12-20T15:22:39;179.30;2252.80
55219;DHT22;65463;43.864;20.136;2022-12-20T15:25:15;154.40;2252.80
55219;DHT22;65463;43.864;20.136;2022-12-20T15:27:41;179.20;2252.80
55219;DHT22;65463;43.864;20.136;2022-12-20T15:30:11;154.50;2252.80
55219;DHT22;65463;43.864;20.136;2022-12-20T15:32:38;179.30;2252.80
55219;DHT22;65463;43.864;20.136;2022-12-20T15:35:11;179.50;2252.80
55219;DHT22;65463;43.864;20.136;2022-12-20T15:42:29;205.00;2252.80
55219;DHT22;65463;43.864;20.136;2022-12-20T15:44:55;204.90;2252.80
55219;DHT22;65463;43.864;20.136;2022-12-20T15:49:48;205.30;2252.80
55219;DHT22;65463;43.864;20.136;2022-12-20T15:52:22;205.50;2252.80
55219;DHT22;65463;43.864;20.136;2022-12-20T15:54:49;230.40;2252.80
55219;DHT22;65463;43.864;20.136;2022-12-20T15:57:15;205.70;2252.80
55219;DHT22;65463;43.864;20.136;2022-12-20T15:59:41;205.50;2252.80
55219;DHT22;65463;43.864;20.136;2022-12-20T16:02:21;205.40;2252.80
55219;DHT22;65463;43.864;20.136;2022-12-20T16:04:47;205.10;2252.80
55219;DHT22;65463;43.864;20.136;2022-12-20T16:07:13;230.60;2252.80
55219;DHT22;65463;43.864;20.136;2022-12-20T16:09:39;205.60;2252.80
55219;DHT22;65463;43.864;20.136;2022-12-20T16:12:17;205.40;2252.80
55219;DHT22;65463;43.864;20.136;2022-12-20T16:14:43;204.90;2252.80
55219;DHT22;65463;43.864;20.136;2022-12-20T16:17:13;180.10;2252.80
55219;DHT22;65463;43.864;20.136;2022-12-20T16:19:39;205.00;2252.80
55219;DHT22;65463;43.864;20.136;2022-12-20T16:22:08;180.00;2252.80
55219;DHT22;65463;43.864;20.136;2022-12-20T17:36:30;179.60;2252.80
55219;DHT22;65463;43.864;20.136;2022-12-20T17:38:57;180.00;2252.80
55219;DHT22;65463;43.864;20.136;2022-12-20T17:41:28;231.30;2252.80
55219;DHT22;65463;43.864;20.136;2022-12-20T18:27:54;102.70;2227.20
55219;DHT22;65463;43.864;20.136;2022-12-20T18:30:20;102.70;2227.20
55219;DHT22;65463;43.864;20.136;2022-12-20T20:32:53;102.90;2227.20
55219;DHT22;65463;43.864;20.136;2022-12-20T21:53:42;179.50;2252.80
55219;DHT22;65463;43.864;20.136;2022-12-20T21:56:09;205.30;2252.80
55219;DHT22;65463;43.864;20.136;2022-12-20T21:58:35;231.20;2252.80
55219;DHT22;65463;43.864;20.136;2022-12-20T22:01:03;230.40;2252.80
55219;DHT22;65463;43.864;20.136;2022-12-20T22:05:55;179.70;2252.80
55219;DHT22;65463;43.864;20.136;2022-12-20T22:08:23;154.40;2252.80
